Time;durP1;ratioP1;P1;durP2;ratioP2;P2;SDS_P1;SDS_P2;PMS_P1;PMS_P2;Temp;Humidity;BMP_temperature;BMP_pressure;BME280_temperature;BME280_humidity;BME280_pressure;Samples;Min_cycle;Max_cycle;Signal;HPM_P1;HPM_P2
2023/10/02 00:01:19;;;;;;;3.67;3.35;;;;;;;;;;4999288;28;20022;-21
2023/10/02 00:03:48;;;;;;;2.97;2.60;;;;;;;;;;4998591;28;20376;-23
2023/10/02 00:06:18;;;;;;;4.03;3.40;;;;;;;;;;4998996;28;20026;-18
2023/10/02 00:08:49;;;;;;;3.20;2.90;;;;;;;;;;4998624;28;20023;-25
2023/10/02 00:16:59;;;;;;;3.38;3.08;;;;;;;;;;4998524;28;20132;-21
2023/10/02 00:19:29;;;;;;;3.45;3.15;;;;;;;;;;4998747;28;20397;-25
2023/10/02 00:22:06;;;;;;;3.13;2.88;;;;;;;;;;4998555;28;20107;-19
2023/10/02 00:24:36;;;;;;;3.85;3.53;;;;;;;;;;4998840;28;20019;-20
2023/10/02 00:27:02;;;;;;;3.33;3.03;;;;;;;;;;4998600;28;20110;-22
2023/10/02 00:29:29;;;;;;;3.35;3.05;;;;;;;;;;4998301;28;20094;-21
2023/10/02 00:31:55;;;;;;;3.58;3.28;;;;;;;;;;4998393;28;20109;-20
2023/10/02 00:34:30;;;;;;;3.45;3.15;;;;;;;;;;4998470;28;20023;-20
2023/10/02 00:37:02;;;;;;;3.08;2.80;;;;;;;;;;4998716;28;20391;-18
2023/10/02 00:39:31;;;;;;;3.67;3.38;;;;;;;;;;4998062;28;20034;-19
2023/10/02 00:45:02;;;;;;;3.50;3.20;;;;;;;;;;4964986;28;20126;-18
2023/10/02 00:47:38;;;;;;;3.17;2.88;;;;;;;;;;4997635;28;20050;-22
2023/10/02 00:50:17;;;;;;;2.85;2.65;;;;;;;;;;4998669;28;20118;-18
2023/10/02 00:52:47;;;;;;;3.20;2.90;;;;;;;;;;4998125;28;20034;-22
2023/10/02 00:55:15;;;;;;;3.47;3.17;;;;;;;;;;4997761;28;20092;-20
2023/10/02 00:57:41;;;;;;;3.33;3.03;;;;;;;;;;4997759;28;20033;-19
2023/10/02 01:00:19;;;;;;;3.63;3.33;;;;;;;;;;4997673;28;20026;-18
2023/10/02 01:02:48;;;;;;;3.58;3.28;;;;;;;;;;4997576;28;20097;-20
2023/10/02 01:05:21;;;;;;;2.78;2.58;;;;;;;;;;4997352;28;20046;-24
2023/10/02 01:07:48;;;;;;;3.25;2.95;;;;;;;;;;4998680;28;20014;-20
2023/10/02 01:10:18;;;;;;;3.67;3.38;;;;;;;;;;4997463;28;20034;-21
2023/10/02 01:12:53;;;;;;;3.53;3.22;;;;;;;;;;4997696;28;20053;-21
2023/10/02 01:15:20;;;;;;;3.38;3.05;;;;;;;;;;4997467;28;20026;-18
2023/10/02 01:17:48;;;;;;;3.80;3.50;;;;;;;;;;4997408;28;20026;-19
2023/10/02 01:23:17;;;;;;;3.15;2.85;;;;;;;;;;4997684;28;20477;-20
2023/10/02 01:25:45;;;;;;;4.00;3.70;;;;;;;;;;4980086;28;20472;-18
2023/10/02 01:28:13;;;;;;;3.15;2.90;;;;;;;;;;4997447;28;20018;-21
2023/10/02 01:30:40;;;;;;;3.55;3.25;;;;;;;;;;4997407;28;20038;-21
2023/10/02 01:33:11;;;;;;;3.65;3.35;;;;;;;;;;4997023;28;20037;-19
2023/10/02 01:35:38;;;;;;;3.28;2.97;;;;;;;;;;4997077;28;20030;-22
2023/10/02 01:38:12;;;;;;;3.85;3.55;;;;;;;;;;4996983;28;20377;-20
2023/10/02 01:40:40;;;;;;;2.83;2.63;;;;;;;;;;4996989;28;20477;-19
2023/10/02 01:43:12;;;;;;;3.38;3.08;;;;;;;;;;4996941;28;20026;-19
2023/10/02 01:45:45;;;;;;;4.05;3.58;;;;;;;;;;4996834;28;20030;-20
2023/10/02 01:51:25;;;;;;;3.60;3.30;;;;;;;;;;4997061;28;20045;-20
2023/10/02 01:53:57;;;;;;;3.33;3.03;;;;;;;;;;4996920;28;20030;-26
2023/10/02 01:56:29;;;;;;;3.80;3.40;;;;;;;;;;4997094;28;20027;-22
2023/10/02 01:59:08;;;;;;;2.97;2.67;;;;;;;;;;4979926;28;20018;-21
2023/10/02 02:01:46;;;;;;;4.40;3.67;;;;;;;;;;4996533;28;20466;-18
2023/10/02 02:04:14;;;;;;;3.47;3.17;;;;;;;;;;4979051;28;20454;-18
2023/10/02 02:06:51;;;;;;;3.50;3.20;;;;;;;;;;4996722;28;20038;-20
2023/10/02 02:09:37;;;;;;;3.50;3.20;;;;;;;;;;4996718;28;20455;-20
2023/10/02 02:12:10;;;;;;;3.15;2.80;;;;;;;;;;4996275;28;20034;-19
2023/10/02 02:14:41;;;;;;;3.58;3.28;;;;;;;;;;4996618;28;20029;-22
2023/10/02 02:17:10;;;;;;;3.63;3.13;;;;;;;;;;4996832;28;20045;-20
2023/10/02 02:19:48;;;;;;;3.67;3.38;;;;;;;;;;4996191;28;20034;-20
2023/10/02 02:22:18;;;;;;;3.50;3.20;;;;;;;;;;4996106;28;20026;-20
2023/10/02 02:24:44;;;;;;;3.58;3.28;;;;;;;;;;4996307;28;20037;-21
2023/10/02 02:27:11;;;;;;;3.65;3.35;;;;;;;;;;4996057;28;20027;-20
2023/10/02 02:29:38;;;;;;;3.20;2.90;;;;;;;;;;4996284;28;20442;-18
2023/10/02 02:32:07;;;;;;;2.95;2.70;;;;;;;;;;4995824;28;20508;-20
2023/10/02 02:34:34;;;;;;;3.72;3.42;;;;;;;;;;4996154;28;20066;-18
2023/10/02 02:37:00;;;;;;;3.38;3.08;;;;;;;;;;4996405;28;20100;-17
2023/10/02 02:39:27;;;;;;;3.15;2.85;;;;;;;;;;4996387;28;20030;-19
2023/10/02 02:42:41;;;;;;;3.20;2.90;;;;;;;;;;4995993;28;20042;-19
2023/10/02 02:44:48;;;;;;;3.63;3.33;;;;;;;;;;4987680;28;20113;-22
2023/10/02 02:47:15;;;;;;;3.33;3.13;;;;;;;;;;4995929;28;20035;-19
2023/10/02 02:49:50;;;;;;;2.95;2.75;;;;;;;;;;4995669;28;20097;-22
2023/10/02 02:52:26;;;;;;;3.47;3.03;;;;;;;;;;4995568;28;20474;-19
2023/10/02 02:54:58;;;;;;;3.95;3.25;;;;;;;;;;4995930;28;20034;-19
2023/10/02 02:57:26;;;;;;;3.92;3.53;;;;;;;;;;4995846;28;20056;-21
2023/10/02 03:00:24;;;;;;;3.60;3.30;;;;;;;;;;4995562;28;20354;-18
2023/10/02 03:02:40;;;;;;;3.58;3.22;;;;;;;;;;4995331;28;20081;-18
2023/10/02 03:05:11;;;;;;;3.60;3.30;;;;;;;;;;4975390;28;20046;-19
2023/10/02 03:07:39;;;;;;;3.43;3.13;;;;;;;;;;4976650;28;20011;-20
2023/10/02 03:10:10;;;;;;;3.47;3.17;;;;;;;;;;4975195;28;20454;-17
2023/10/02 03:12:44;;;;;;;3.47;3.17;;;;;;;;;;4976187;28;20046;-18
2023/10/02 03:15:12;;;;;;;4.70;3.47;;;;;;;;;;4976254;28;20443;-20
2023/10/02 03:17:41;;;;;;;3.58;3.28;;;;;;;;;;4975908;28;20043;-21
2023/10/02 03:20:22;;;;;;;3.25;3.00;;;;;;;;;;4976138;28;20390;-20
2023/10/02 03:22:57;;;;;;;4.00;3.70;;;;;;;;;;4975844;28;20177;-21
2023/10/02 03:27:55;;;;;;;3.38;3.08;;;;;;;;;;4975807;28;20031;-18
2023/10/02 03:30:35;;;;;;;3.03;2.72;;;;;;;;;;4976037;28;20015;-20
2023/10/02 03:33:17;;;;;;;3.33;2.97;;;;;;;;;;4975831;28;20023;-19
2023/10/02 03:35:56;;;;;;;3.53;3.20;;;;;;;;;;4975692;28;20058;-19
2023/10/02 03:38:23;;;;;;;3.22;3.03;;;;;;;;;;4976016;28;20108;-19
2023/10/02 03:40:54;;;;;;;3.08;2.72;;;;;;;;;;4976183;28;20041;-20
2023/10/02 03:43:29;;;;;;;3.20;2.92;;;;;;;;;;4975646;28;20366;-19
2023/10/02 03:45:58;;;;;;;3.20;2.95;;;;;;;;;;4975729;28;20023;-23
2023/10/02 03:48:28;;;;;;;3.40;3.10;;;;;;;;;;4974603;28;20027;-19
2023/10/02 03:50:58;;;;;;;3.60;3.30;;;;;;;;;;4975795;28;20019;-19
2023/10/02 03:53:30;;;;;;;2.88;2.67;;;;;;;;;;4975438;28;20026;-20
2023/10/02 03:58:52;;;;;;;3.15;2.95;;;;;;;;;;4975739;28;20054;-19
2023/10/02 04:01:30;;;;;;;3.40;3.10;;;;;;;;;;4976128;28;20030;-21
2023/10/02 04:06:53;;;;;;;3.67;3.38;;;;;;;;;;4981915;28;20092;-20
2023/10/02 04:11:48;;;;;;;3.03;2.78;;;;;;;;;;4995148;28;20027;-18
2023/10/02 04:14:18;;;;;;;3.38;3.08;;;;;;;;;;4994768;28;20042;-20
2023/10/02 04:16:46;;;;;;;3.35;3.05;;;;;;;;;;4994441;28;20034;-21
2023/10/02 04:19:15;;;;;;;4.35;3.13;;;;;;;;;;4994313;28;20023;-19
2023/10/02 04:21:42;;;;;;;3.80;3.50;;;;;;;;;;4997664;28;20049;-21
2023/10/02 04:24:12;;;;;;;4.25;3.10;;;;;;;;;;4998173;28;20422;-19
2023/10/02 04:26:41;;;;;;;3.38;2.95;;;;;;;;;;4998106;28;20030;-21
2023/10/02 04:29:25;;;;;;;4.68;3.35;;;;;;;;;;4998078;28;20019;-25
2023/10/02 04:34:37;;;;;;;3.72;3.42;;;;;;;;;;4997736;28;20068;-21
2023/10/02 04:37:19;;;;;;;4.35;3.17;;;;;;;;;;4980441;28;20030;-22
2023/10/02 04:42:29;;;;;;;3.60;3.30;;;;;;;;;;4997871;28;20030;-23
2023/10/02 04:44:59;;;;;;;4.13;3.78;;;;;;;;;;4997876;28;20022;-21
2023/10/02 04:47:31;;;;;;;5.20;3.35;;;;;;;;;;4997570;28;20105;-20
2023/10/02 04:52:53;;;;;;;3.53;3.22;;;;;;;;;;4997762;28;20446;-18
2023/10/02 04:55:24;;;;;;;5.45;3.67;;;;;;;;;;4997452;28;20402;-20
2023/10/02 04:57:54;;;;;;;6.72;3.53;;;;;;;;;;4997589;28;20050;-22
2023/10/02 05:03:24;;;;;;;11.63;3.60;;;;;;;;;;4974318;28;20030;-20
2023/10/02 05:05:54;;;;;;;6.75;3.90;;;;;;;;;;4997635;28;20030;-21
2023/10/02 05:08:21;;;;;;;3.65;3.30;;;;;;;;;;4997743;28;20025;-19
2023/10/02 05:10:56;;;;;;;6.25;3.20;;;;;;;;;;4997166;28;20026;-19
2023/10/02 05:16:11;;;;;;;7.03;3.58;;;;;;;;;;4997436;28;20046;-19
2023/10/02 05:18:37;;;;;;;4.53;3.47;;;;;;;;;;4997288;28;20022;-20
2023/10/02 05:21:04;;;;;;;5.20;3.55;;;;;;;;;;4996928;28;20034;-21
2023/10/02 05:23:30;;;;;;;5.95;4.03;;;;;;;;;;4996908;28;20445;-20
2023/10/02 05:26:02;;;;;;;14.52;4.45;;;;;;;;;;4996818;28;20109;-22
2023/10/02 05:28:42;;;;;;;8.07;4.32;;;;;;;;;;4996828;28;20038;-22
2023/10/02 05:31:09;;;;;;;16.85;5.43;;;;;;;;;;4996611;28;20033;-18
2023/10/02 05:33:38;;;;;;;12.00;4.85;;;;;;;;;;4996325;28;20030;-17
2023/10/02 05:36:19;;;;;;;9.48;3.83;;;;;;;;;;4997317;28;20030;-21
2023/10/02 05:39:16;;;;;;;9.77;3.80;;;;;;;;;;4996867;28;20081;-19
2023/10/02 05:41:41;;;;;;;8.27;3.58;;;;;;;;;;4996465;28;20084;-19
2023/10/02 05:44:13;;;;;;;6.63;4.07;;;;;;;;;;4996757;28;20413;-22
2023/10/02 05:46:56;;;;;;;5.63;3.85;;;;;;;;;;4996971;28;20036;-19
2023/10/02 05:49:26;;;;;;;4.75;3.58;;;;;;;;;;4996715;28;20105;-20
2023/10/02 05:52:00;;;;;;;8.45;3.83;;;;;;;;;;4996836;28;20026;-19
2023/10/02 05:54:29;;;;;;;11.90;4.65;;;;;;;;;;4996491;28;20034;-20
2023/10/02 05:57:12;;;;;;;6.22;3.28;;;;;;;;;;4979490;28;20084;-20
2023/10/02 05:59:57;;;;;;;31.85;5.50;;;;;;;;;;4996372;28;20106;-22
2023/10/02 06:02:24;;;;;;;8.88;4.13;;;;;;;;;;5409328;23;20050;-23
2023/10/02 06:05:07;;;;;;;9.30;3.45;;;;;;;;;;4979189;28;20113;-23
2023/10/02 06:07:40;;;;;;;9.50;3.17;;;;;;;;;;4996758;28;20046;-23
2023/10/02 06:10:08;;;;;;;5.78;3.03;;;;;;;;;;4979768;28;20027;-23
2023/10/02 06:12:42;;;;;;;6.85;3.60;;;;;;;;;;4979294;28;20034;-22
2023/10/02 06:18:02;;;;;;;3.90;3.38;;;;;;;;;;4958952;28;20100;-22
2023/10/02 06:20:28;;;;;;;9.90;3.75;;;;;;;;;;4996022;28;20081;-23
2023/10/02 06:23:05;;;;;;;5.88;3.70;;;;;;;;;;4995858;28;20035;-24
2023/10/02 06:25:31;;;;;;;7.75;4.10;;;;;;;;;;4996099;28;20356;-23
2023/10/02 06:28:22;;;;;;;7.53;3.80;;;;;;;;;;4979488;28;20030;-22
2023/10/02 06:30:49;;;;;;;8.95;3.60;;;;;;;;;;4995610;28;20058;-23
2023/10/02 06:33:17;;;;;;;4.97;3.50;;;;;;;;;;4995680;28;20026;-24
2023/10/02 06:35:56;;;;;;;10.18;4.97;;;;;;;;;;4995930;28;20342;-22
2023/10/02 06:38:22;;;;;;;11.57;4.45;;;;;;;;;;4995901;28;20026;-24
2023/10/02 06:40:58;;;;;;;14.32;4.93;;;;;;;;;;4995962;28;20093;-22
2023/10/02 06:43:28;;;;;;;11.93;5.63;;;;;;;;;;4995606;28;20085;-23
2023/10/02 06:46:06;;;;;;;7.63;3.72;;;;;;;;;;4995410;28;20038;-22
2023/10/02 06:48:36;;;;;;;9.27;3.88;;;;;;;;;;4995439;28;20097;-22
2023/10/02 06:51:04;;;;;;;9.73;3.80;;;;;;;;;;4996010;28;20361;-23
2023/10/02 06:53:30;;;;;;;7.10;3.70;;;;;;;;;;4978258;28;20476;-24
2023/10/02 06:56:06;;;;;;;6.05;3.85;;;;;;;;;;4995459;28;20476;-23
2023/10/02 06:58:46;;;;;;;7.35;3.55;;;;;;;;;;4995593;28;20356;-23
2023/10/02 07:01:13;;;;;;;10.30;3.97;;;;;;;;;;4995491;28;20042;-23
2023/10/02 07:03:39;;;;;;;12.02;3.65;;;;;;;;;;4994930;28;20038;-23
2023/10/02 07:06:09;;;;;;;5.93;4.40;;;;;;;;;;4977939;28;20046;-22
2023/10/02 07:08:35;;;;;;;16.65;5.15;;;;;;;;;;4995138;28;20022;-22
2023/10/02 07:11:10;;;;;;;11.70;5.40;;;;;;;;;;4995149;28;20034;-22
2023/10/02 07:13:51;;;;;;;8.30;4.18;;;;;;;;;;4995358;28;20465;-22
2023/10/02 07:16:22;;;;;;;3.60;3.30;;;;;;;;;;4978072;28;20030;-24
2023/10/02 07:18:53;;;;;;;6.45;4.65;;;;;;;;;;4996071;28;20327;-22
2023/10/02 07:21:22;;;;;;;;;;;;;;;;;;4995778;28;20041;-24
2023/10/02 07:23:49;;;;;;;12.48;4.32;;;;;;;;;;4994962;28;19969;-23
2023/10/02 07:26:19;;;;;;;4.10;3.63;;;;;;;;;;4995203;28;20323;-24
2023/10/02 07:28:51;;;;;;;10.17;3.97;;;;;;;;;;4995006;28;20350;-24
2023/10/02 07:31:21;;;;;;;10.60;4.97;;;;;;;;;;4994870;28;20022;-23
2023/10/02 07:33:47;;;;;;;8.90;4.03;;;;;;;;;;4994495;28;20065;-23
2023/10/02 07:36:14;;;;;;;5.13;4.30;;;;;;;;;;4994530;28;20406;-22
2023/10/02 07:38:46;;;;;;;7.25;4.32;;;;;;;;;;4994758;28;20057;-23
2023/10/02 07:41:25;;;;;;;9.43;4.47;;;;;;;;;;4994788;28;20408;-22
2023/10/02 07:43:53;;;;;;;12.87;4.97;;;;;;;;;;4994767;28;20045;-23
2023/10/02 07:46:21;;;;;;;9.45;4.32;;;;;;;;;;4994718;28;20231;-21
2023/10/02 07:49:04;;;;;;;9.10;5.50;;;;;;;;;;4977376;28;20085;-23
2023/10/02 07:51:37;;;;;;;7.07;4.30;;;;;;;;;;4994458;28;20026;-23
2023/10/02 07:54:04;;;;;;;6.82;4.80;;;;;;;;;;4994394;28;20030;-22
2023/10/02 07:56:32;;;;;;;10.50;4.72;;;;;;;;;;4997541;28;20041;-25
2023/10/02 07:59:01;;;;;;;9.32;3.65;;;;;;;;;;4998481;28;20037;-22
2023/10/02 08:01:33;;;;;;;11.15;4.05;;;;;;;;;;4998353;28;20022;-23
2023/10/02 08:04:01;;;;;;;11.60;3.92;;;;;;;;;;4997937;28;20050;-23
2023/10/02 08:11:50;;;;;;;7.10;4.38;;;;;;;;;;4998214;28;20484;-22
2023/10/02 08:14:35;;;;;;;11.45;3.78;;;;;;;;;;4998481;28;20042;-23
2023/10/02 08:17:27;;;;;;;8.00;4.10;;;;;;;;;;4998218;28;20030;-21
2023/10/02 08:20:15;;;;;;;12.85;4.60;;;;;;;;;;4998013;28;20370;-21
2023/10/02 08:22:45;;;;;;;6.45;4.20;;;;;;;;;;4998212;28;20031;-23
2023/10/02 08:25:15;;;;;;;8.05;3.92;;;;;;;;;;4997826;28;20038;-21
2023/10/02 08:27:44;;;;;;;5.75;4.15;;;;;;;;;;4998158;28;20019;-22
2023/10/02 08:30:31;;;;;;;9.07;4.68;;;;;;;;;;4998021;28;20030;-24
2023/10/02 08:33:09;;;;;;;7.53;4.72;;;;;;;;;;4997916;28;20109;-23
2023/10/02 08:35:46;;;;;;;10.48;4.90;;;;;;;;;;4998018;28;20038;-22
2023/10/02 08:38:34;;;;;;;14.65;4.97;;;;;;;;;;4998509;28;20108;-23
2023/10/02 08:41:03;;;;;;;15.88;4.40;;;;;;;;;;4996993;28;20049;-24
2023/10/02 08:43:32;;;;;;;11.40;3.95;;;;;;;;;;4980557;28;20487;-23
2023/10/02 08:45:59;;;;;;;14.50;5.25;;;;;;;;;;4997628;28;20034;-25
2023/10/02 08:48:25;;;;;;;12.05;5.03;;;;;;;;;;4997647;28;20080;-22
2023/10/02 08:50:57;;;;;;;9.23;4.22;;;;;;;;;;4997353;28;20034;-24
2023/10/02 08:53:25;;;;;;;8.50;4.45;;;;;;;;;;4997443;28;20109;-23
2023/10/02 08:56:01;;;;;;;7.55;4.75;;;;;;;;;;4997239;28;20033;-23
2023/10/02 08:58:27;;;;;;;7.28;4.50;;;;;;;;;;4997123;28;20033;-22
2023/10/02 09:03:41;;;;;;;;;;;;;;;;;;4997340;28;20038;-21
2023/10/02 09:06:25;;;;;;;7.72;4.57;;;;;;;;;;4996573;28;19936;-22
2023/10/02 09:11:39;;;;;;;15.20;6.78;;;;;;;;;;4997501;28;20045;-24
2023/10/02 09:14:39;;;;;;;12.10;6.47;;;;;;;;;;4996876;28;20030;-24
2023/10/02 09:17:22;;;;;;;10.48;5.78;;;;;;;;;;4997360;28;20022;-22
2023/10/02 09:19:58;;;;;;;12.45;5.72;;;;;;;;;;4996998;28;20375;-23
2023/10/02 09:22:25;;;;;;;10.43;5.63;;;;;;;;;;4996588;28;20440;-22
2023/10/02 09:24:55;;;;;;;7.45;5.75;;;;;;;;;;4996734;28;20045;-23
2023/10/02 09:27:38;;;;;;;12.98;5.78;;;;;;;;;;4997305;28;20353;-22
2023/10/02 09:30:36;;;;;;;18.25;5.00;;;;;;;;;;4996855;28;20457;-23
2023/10/02 09:33:23;;;;;;;14.45;5.95;;;;;;;;;;4996689;28;20042;-23
2023/10/02 09:35:54;;;;;;;17.63;5.25;;;;;;;;;;4997161;28;20018;-21
2023/10/02 09:38:24;;;;;;;19.38;5.68;;;;;;;;;;4997045;28;20397;-23
2023/10/02 09:43:20;;;;;;;15.20;6.03;;;;;;;;;;4996680;28;20357;-22
2023/10/02 09:45:53;;;;;;;11.10;5.38;;;;;;;;;;4996624;28;20333;-24
2023/10/02 09:51:25;;;;;;;14.13;5.03;;;;;;;;;;4996487;28;20027;-23
2023/10/02 09:54:05;;;;;;;14.65;4.70;;;;;;;;;;4996688;28;20034;-23
2023/10/02 09:56:51;;;;;;;10.00;4.68;;;;;;;;;;4996539;28;20050;-21
2023/10/02 09:59:22;;;;;;;14.98;4.47;;;;;;;;;;4996989;28;20041;-21
2023/10/02 10:02:47;;;;;;;5.97;4.47;;;;;;;;;;4996443;28;20026;-21
2023/10/02 10:07:52;;;;;;;8.32;5.13;;;;;;;;;;4958223;29;20439;-23
2023/10/02 10:10:18;;;;;;;;;;;;;;;;;;4957929;28;20038;-24
2023/10/02 10:12:50;;;;;;;8.43;4.60;;;;;;;;;;4957545;28;19907;-22
2023/10/02 10:15:23;;;;;;;15.90;4.60;;;;;;;;;;4957730;28;20110;-20
2023/10/02 10:17:50;;;;;;;13.55;6.97;;;;;;;;;;4957525;28;20094;-20
2023/10/02 10:20:19;;;;;;;7.93;4.38;;;;;;;;;;4957331;29;20031;-19
2023/10/02 10:22:55;;;;;;;11.90;5.70;;;;;;;;;;4956994;28;20058;-19
2023/10/02 10:28:06;;;;;;;15.43;5.85;;;;;;;;;;4957101;29;20023;-21
2023/10/02 10:30:39;;;;;;;10.20;4.70;;;;;;;;;;4957593;28;20096;-21
2023/10/02 10:35:48;;;;;;;16.45;4.45;;;;;;;;;;4956922;29;20046;-20
2023/10/02 10:38:34;;;;;;;11.05;5.00;;;;;;;;;;4957287;28;20034;-20
2023/10/02 10:41:01;;;;;;;10.35;5.07;;;;;;;;;;4957570;28;20324;-24
2023/10/02 10:43:43;;;;;;;8.18;5.05;;;;;;;;;;4972035;28;20027;-19
2023/10/02 10:46:13;;;;;;;8.50;5.40;;;;;;;;;;4956886;28;20059;-21
2023/10/02 10:48:40;;;;;;;18.27;5.55;;;;;;;;;;4957129;28;20037;-21
2023/10/02 10:51:20;;;;;;;11.98;4.68;;;;;;;;;;4971803;28;20110;-21
2023/10/02 10:53:54;;;;;;;14.77;5.18;;;;;;;;;;4956742;28;20027;-18
2023/10/02 10:56:22;;;;;;;13.63;5.65;;;;;;;;;;4956847;28;20020;-18
2023/10/02 10:58:53;;;;;;;16.00;6.20;;;;;;;;;;4956855;28;20081;-23
2023/10/02 11:01:22;;;;;;;;;;;;;;;;;;4957018;28;20114;-18
2023/10/02 11:03:54;;;;;;;8.65;4.53;;;;;;;;;;4981442;28;20345;-19
2023/10/02 11:06:23;;;;;;;12.15;5.28;;;;;;;;;;4995023;28;20030;-22
2023/10/02 11:09:18;;;;;;;24.10;6.05;;;;;;;;;;4995125;28;20021;-24
2023/10/02 11:11:49;;;;;;;7.43;5.30;;;;;;;;;;4995258;28;20019;-22
2023/10/02 11:14:21;;;;;;;12.15;5.60;;;;;;;;;;4978398;28;20026;-20
2023/10/02 11:16:52;;;;;;;11.90;5.28;;;;;;;;;;4994917;28;20128;-21
2023/10/02 11:19:23;;;;;;;7.60;4.53;;;;;;;;;;4995229;28;20057;-19
2023/10/02 11:22:02;;;;;;;9.98;4.97;;;;;;;;;;4995117;28;20026;-18
2023/10/02 11:24:29;;;;;;;14.15;5.07;;;;;;;;;;4995499;28;20023;-24
2023/10/02 11:27:06;;;;;;;8.30;4.93;;;;;;;;;;4995146;28;20426;-20
2023/10/02 11:29:40;;;;;;;9.85;5.93;;;;;;;;;;4994646;28;20452;-20
2023/10/02 11:32:19;;;;;;;9.80;5.15;;;;;;;;;;4995018;28;20030;-21
2023/10/02 11:34:46;;;;;;;12.73;5.32;;;;;;;;;;4994927;28;20092;-21
2023/10/02 11:37:13;;;;;;;12.07;5.22;;;;;;;;;;4994963;28;20465;-20
2023/10/02 11:39:39;;;;;;;9.93;5.20;;;;;;;;;;4995035;28;20035;-18
2023/10/02 11:42:06;;;;;;;8.68;5.40;;;;;;;;;;4994806;28;20033;-18
2023/10/02 11:44:32;;;;;;;11.68;6.00;;;;;;;;;;4994959;28;20036;-19
2023/10/02 11:47:02;;;;;;;13.90;5.57;;;;;;;;;;4995213;28;20018;-20
2023/10/02 11:49:29;;;;;;;13.67;5.67;;;;;;;;;;4995160;28;20318;-22
2023/10/02 11:52:03;;;;;;;18.50;6.80;;;;;;;;;;4995124;28;20106;-19
2023/10/02 11:54:35;;;;;;;18.73;5.72;;;;;;;;;;4994678;28;20038;-18
2023/10/02 11:57:01;;;;;;;9.00;5.72;;;;;;;;;;4995335;28;20064;-18
2023/10/02 11:59:31;;;;;;;17.08;5.90;;;;;;;;;;4995486;28;20030;-21
2023/10/02 12:01:57;;;;;;;11.35;5.97;;;;;;;;;;4994710;28;20032;-15
2023/10/02 12:04:26;;;;;;;9.85;5.00;;;;;;;;;;4994615;28;20046;-21
2023/10/02 12:06:54;;;;;;;12.30;5.78;;;;;;;;;;4995034;28;20117;-21
2023/10/02 12:09:23;;;;;;;10.75;5.80;;;;;;;;;;4995016;28;20084;-23
2023/10/02 12:11:49;;;;;;;9.55;5.10;;;;;;;;;;4995062;28;20026;-20
2023/10/02 12:14:15;;;;;;;8.77;5.68;;;;;;;;;;4994533;28;20067;-18
2023/10/02 12:16:41;;;;;;;10.32;6.13;;;;;;;;;;4994776;28;20027;-20
2023/10/02 12:19:10;;;;;;;18.02;5.93;;;;;;;;;;4977410;28;20050;-19
2023/10/02 12:21:37;;;;;;;7.18;5.28;;;;;;;;;;4995114;28;20018;-22
2023/10/02 12:24:05;;;;;;;13.68;5.53;;;;;;;;;;4994293;28;20030;-21
2023/10/02 12:26:32;;;;;;;15.98;6.38;;;;;;;;;;4994609;28;20461;-25
2023/10/02 12:29:00;;;;;;;11.02;5.68;;;;;;;;;;4994367;28;20066;-20
2023/10/02 12:31:26;;;;;;;19.95;6.65;;;;;;;;;;4994445;28;20037;-23
2023/10/02 12:33:52;;;;;;;7.32;5.35;;;;;;;;;;4994450;28;20023;-22
2023/10/02 12:36:21;;;;;;;10.73;6.00;;;;;;;;;;4977248;28;20022;-20
2023/10/02 12:38:49;;;;;;;9.45;5.80;;;;;;;;;;4994685;28;20026;-19
2023/10/02 12:41:20;;;;;;;12.52;6.10;;;;;;;;;;4995171;28;20032;-25
2023/10/02 12:43:47;;;;;;;7.68;5.03;;;;;;;;;;4997875;28;20401;-17
2023/10/02 12:46:16;;;;;;;8.27;6.15;;;;;;;;;;4980842;28;20030;-19
2023/10/02 12:48:46;;;;;;;21.30;6.03;;;;;;;;;;4998411;28;20026;-22
2023/10/02 12:51:13;;;;;;;14.20;5.25;;;;;;;;;;4998123;28;20022;-17
2023/10/02 12:53:40;;;;;;;7.75;5.55;;;;;;;;;;4998213;28;20027;-22
2023/10/02 12:56:07;;;;;;;6.10;4.80;;;;;;;;;;4997786;28;20369;-17
2023/10/02 12:58:36;;;;;;;8.40;5.72;;;;;;;;;;4997704;28;20369;-19
2023/10/02 13:01:03;;;;;;;7.55;5.55;;;;;;;;;;4997400;28;20109;-20
2023/10/02 13:03:30;;;;;;;8.32;5.43;;;;;;;;;;4997164;28;20046;-21
2023/10/02 13:05:58;;;;;;;9.02;5.50;;;;;;;;;;4997286;28;20046;-24
2023/10/02 13:08:25;;;;;;;9.98;5.30;;;;;;;;;;4980215;28;20024;-23
2023/10/02 13:10:51;;;;;;;8.23;5.18;;;;;;;;;;4997300;28;20097;-21
2023/10/02 13:13:17;;;;;;;8.68;5.75;;;;;;;;;;4997353;28;20100;-22
2023/10/02 13:15:43;;;;;;;12.43;6.15;;;;;;;;;;4997989;28;20030;-23
2023/10/02 13:18:10;;;;;;;12.20;6.57;;;;;;;;;;4997295;28;20394;-20
2023/10/02 13:20:36;;;;;;;9.30;6.30;;;;;;;;;;4997129;28;20096;-19
2023/10/02 13:23:02;;;;;;;9.25;6.25;;;;;;;;;;4997357;28;20349;-19
2023/10/02 13:25:29;;;;;;;9.00;5.50;;;;;;;;;;4997542;28;20022;-19
2023/10/02 13:27:55;;;;;;;15.80;6.32;;;;;;;;;;4996773;28;20026;-19
2023/10/02 13:30:25;;;;;;;15.52;6.45;;;;;;;;;;4997150;28;20085;-20
2023/10/02 13:32:52;;;;;;;12.32;6.07;;;;;;;;;;4996929;28;20096;-19
2023/10/02 13:35:18;;;;;;;12.90;5.97;;;;;;;;;;4996704;28;20030;-21
2023/10/02 13:37:44;;;;;;;11.20;6.03;;;;;;;;;;4996740;28;20065;-20
2023/10/02 13:40:31;;;;;;;12.02;5.93;;;;;;;;;;4996730;28;20026;-21
2023/10/02 13:42:58;;;;;;;15.80;5.80;;;;;;;;;;4996606;28;20046;-23
2023/10/02 13:45:25;;;;;;;8.68;6.15;;;;;;;;;;4996604;28;20026;-22
2023/10/02 13:47:54;;;;;;;7.22;5.80;;;;;;;;;;4996625;28;20369;-21
2023/10/02 13:50:21;;;;;;;17.15;6.05;;;;;;;;;;4996424;28;20023;-24
2023/10/02 13:52:51;;;;;;;10.57;5.47;;;;;;;;;;4996246;28;20353;-19
2023/10/02 13:55:22;;;;;;;16.70;8.23;;;;;;;;;;4996482;28;20041;-21
2023/10/02 13:57:48;;;;;;;;;;;;;;;;;;4997169;28;20358;-22
2023/10/02 14:00:17;;;;;;;7.57;5.72;;;;;;;;;;4996686;28;19910;-19
2023/10/02 14:02:51;;;;;;;10.40;5.93;;;;;;;;;;4996365;28;20070;-22
2023/10/02 14:05:18;;;;;;;14.70;5.88;;;;;;;;;;4996183;28;20031;-24
2023/10/02 14:07:48;;;;;;;10.00;5.57;;;;;;;;;;4996454;28;20040;-21
2023/10/02 14:10:16;;;;;;;8.90;6.32;;;;;;;;;;4996252;28;20509;-26
2023/10/02 14:12:43;;;;;;;12.65;6.68;;;;;;;;;;4996197;28;20437;-21
2023/10/02 14:15:19;;;;;;;13.40;6.90;;;;;;;;;;4996512;28;20030;-21
2023/10/02 14:17:49;;;;;;;14.65;6.25;;;;;;;;;;4996092;28;20026;-19
2023/10/02 14:20:15;;;;;;;9.38;6.15;;;;;;;;;;4996016;28;20030;-25
2023/10/02 14:22:49;;;;;;;7.38;5.60;;;;;;;;;;4996324;28;20072;-22
2023/10/02 14:25:23;;;;;;;9.25;5.15;;;;;;;;;;4996515;28;20091;-20
2023/10/02 14:27:53;;;;;;;13.57;6.18;;;;;;;;;;4996344;28;20462;-22
2023/10/02 14:30:19;;;;;;;10.07;5.78;;;;;;;;;;4996241;28;20053;-20
2023/10/02 14:32:46;;;;;;;22.73;7.15;;;;;;;;;;4995792;28;20458;-26
2023/10/02 14:35:16;;;;;;;28.05;7.78;;;;;;;;;;4995860;28;20030;-23
2023/10/02 14:37:43;;;;;;;12.90;5.70;;;;;;;;;;4996421;28;20487;-21
2023/10/02 14:40:19;;;;;;;9.98;6.03;;;;;;;;;;4995942;28;20382;-19
2023/10/02 14:42:46;;;;;;;12.20;6.57;;;;;;;;;;4996134;28;20030;-22
2023/10/02 14:45:12;;;;;;;11.50;6.13;;;;;;;;;;4995597;28;20034;-21
2023/10/02 14:47:39;;;;;;;14.68;6.25;;;;;;;;;;4978490;28;20033;-22
2023/10/02 14:50:05;;;;;;;11.00;7.13;;;;;;;;;;4995550;28;20019;-20
2023/10/02 14:52:31;;;;;;;12.80;7.03;;;;;;;;;;4995724;28;20026;-20
2023/10/02 14:54:57;;;;;;;6.95;6.07;;;;;;;;;;4995489;28;20030;-21
2023/10/02 14:57:23;;;;;;;12.02;5.97;;;;;;;;;;4995539;28;20047;-23
2023/10/02 14:59:51;;;;;;;16.00;6.30;;;;;;;;;;4995410;28;20041;-17
2023/10/02 15:02:17;;;;;;;11.95;5.95;;;;;;;;;;4978246;28;20089;-20
2023/10/02 15:04:43;;;;;;;15.90;6.32;;;;;;;;;;4994300;28;20050;-19
2023/10/02 15:07:13;;;;;;;15.05;5.90;;;;;;;;;;4995490;28;20050;-19
2023/10/02 15:09:39;;;;;;;8.18;5.45;;;;;;;;;;4995317;28;20023;-21
2023/10/02 15:12:07;;;;;;;12.35;6.80;;;;;;;;;;4995553;28;20496;-22
2023/10/02 15:14:35;;;;;;;9.23;6.35;;;;;;;;;;4995495;28;20035;-21
2023/10/02 15:17:03;;;;;;;11.75;5.93;;;;;;;;;;4995158;28;20485;-22
2023/10/02 15:19:29;;;;;;;15.82;6.72;;;;;;;;;;4978113;28;20030;-20
2023/10/02 15:21:56;;;;;;;7.78;6.22;;;;;;;;;;4995426;28;20077;-25
2023/10/02 15:24:24;;;;;;;15.32;6.82;;;;;;;;;;4995606;28;20031;-20
2023/10/02 15:26:50;;;;;;;10.15;6.57;;;;;;;;;;4995879;28;20334;-19
2023/10/02 15:29:16;;;;;;;12.60;5.88;;;;;;;;;;4995617;28;20046;-18
2023/10/02 15:31:43;;;;;;;15.60;8.23;;;;;;;;;;4994976;28;20027;-19
2023/10/02 15:34:12;;;;;;;12.13;6.40;;;;;;;;;;4978001;28;20453;-21
2023/10/02 15:36:38;;;;;;;16.63;6.68;;;;;;;;;;4995359;28;20092;-20
2023/10/02 15:39:05;;;;;;;15.55;6.53;;;;;;;;;;4994995;28;20023;-25
2023/10/02 15:41:32;;;;;;;9.77;6.20;;;;;;;;;;4995256;28;20037;-18
2023/10/02 15:43:58;;;;;;;13.80;6.20;;;;;;;;;;4994760;28;20085;-24
2023/10/02 15:46:28;;;;;;;12.55;6.15;;;;;;;;;;4994849;28;20093;-24
2023/10/02 15:48:54;;;;;;;19.88;6.40;;;;;;;;;;4977737;28;20116;-19
2023/10/02 15:51:23;;;;;;;14.00;6.53;;;;;;;;;;4977567;28;20026;-20
2023/10/02 15:53:50;;;;;;;14.60;6.30;;;;;;;;;;4994713;28;20019;-20
2023/10/02 15:56:17;;;;;;;9.90;5.82;;;;;;;;;;4994737;28;20029;-21
2023/10/02 15:58:44;;;;;;;9.65;6.55;;;;;;;;;;4977878;28;20100;-21
2023/10/02 16:01:16;;;;;;;10.52;6.93;;;;;;;;;;4994734;28;20026;-19
2023/10/02 16:03:43;;;;;;;9.40;6.75;;;;;;;;;;4994390;28;20058;-20
2023/10/02 16:06:10;;;;;;;8.73;5.75;;;;;;;;;;4994703;28;20023;-17
2023/10/02 16:08:36;;;;;;;9.10;6.60;;;;;;;;;;4994754;28;20022;-20
2023/10/02 16:11:02;;;;;;;8.90;6.57;;;;;;;;;;4994938;28;20030;-19